Agua Caliente, CA

11:00 PM PDT on July 29, 2016 (GMT -0700)
Los Tules | | Change Station

Elev 3219 ft 33.28 °N, 116.63 °W | Updated 1 minute ago

Clear
Clear
74.7 °F
Feels Like 78 °F
N
1.7
Wind Variable Wind from East

Today
High -- | Low -- °F
--% Chance of Precip.
Yesterday
High -- | Low -- °F
Precip. -- in
Pressure 29.81 in
Visibility 10.0 miles
Clouds Clear
Heat Index 78 °F
Dew Point 55 °F
Humidity 50%
Rainfall 0.00 in
Snow Depth Not available.
5:57 AM 7:47 PM
Waning Crescent, 16% visible
METAR KRNM 300553Z 28003KT 10SM CLR 19/16 A2986 RMK AO2 SLP093 T01940161 10317 20194 50007
Pressure 29.81 in
Visibility 10.0 miles
Clouds Clear
Heat Index 78 °F
Dew Point 55 °F
Humidity 50%
Rainfall 0.00 in
Snow Depth Not available.
5:57 AM 7:47 PM
Waning Crescent, 16% visible
METAR KRNM 300553Z 28003KT 10SM CLR 19/16 A2986 RMK AO2 SLP093 T01940161 10317 20194 50007

10-Day Weather Forecast

Almanac

Astronomy

Jul. 29, 2016 Rise Set
Actual Time
Civil Twilight
Nautical Twilight
Astronomical Twilight
Moon
Length of Visible Light
Length of Day
Tomorrow will be .
, % of the Moon is Illuminated

Today's Extremes

State Highs State Lows

Community

WunderPhotos

Upload Photos

1,928,508 photos uploaded!

WunderBlog® & News

Nearby

Air Quality

  Air Quality AQ Index Pollutant
Not available.

Snow Depth

Station Depth Elevation

Earthquake Activity

City Distance Mag. Time & Date
Minimum magnitude displayed is 2.5.

Coastal Water Temperatures

Place Temperature

Stations

Nearby Weather Stations

Station Location Temp. Windchill Dew Point Humidity Wind Precip. Elev Updated Type
                   

Watches & Warnings

There are currently no watches in effect.